KPIE/PIE METAR and TAF weather

Enter ICAO airport designator
Station Type Date Time Source
KPIE METAR 2021/01/27 13:35 UTC NOAA

KPIE 271335Z 19011KT 8SM OVC005 21/21 A3005 RMK AO2 CIG 003V008 T02060206


Station Type Date Time Source
KPIE Decoded METAR 2021/01/27 13:35 UTC NOAA

ST PETERSBURG/CLEARWATER, FL, United States (KPIE) 27-55N 82-41W 4M
Jan 27, 2021 - 08:35 AM EST / 2021.01.27 1335 UTC
Wind: from the S (190 degrees) at 13 MPH (11 KT):0
Visibility: 8 mile(s):0
Sky conditions: overcast
Temperature: 69.1 F (20.6 C)
Dew Point: 69.1 F (20.6 C)
Relative Humidity: 100%
Pressure (altimeter): 30.05 in. Hg (1017 hPa)
ob: KPIE 271335Z 19011KT 8SM OVC005 21/21 A3005 RMK AO2 CIG 003V008 T02060206
cycle: 13

Station Type Date Time Source
KPIE TAF 2021/01/27 12:36 UTC NOAA

TAF KPIE 271233Z 2712/2812 19012KT 4SM BR SCT004 BKN015
TEMPO 2712/2714 1SM BR OVC004
FM271400 21010G15KT 6SM BR FEW008 BKN015
FM271700 22014G20KT P6SM SCT030 BKN250
FM280000 23008KT 6SM -SHRA SCT015 BKN030 OVC080
FM280400 26013G18KT P6SM SCT020 BKN120
FM280800 33017G23KT P6SM FEW020 SCT250

Example: see airport list